Time;durP1;ratioP1;P1;durP2;ratioP2;P2;SDS_P1;SDS_P2;PMS_P1;PMS_P2;Temp;Humidity;BMP_temperature;BMP_pressure;BME280_temperature;BME280_humidity;BME280_pressure;Samples;Min_cycle;Max_cycle;Signal;HPM_P1;HPM_P2
2023/02/26 00:00:33;;;;;;;19.70;4.68;;;;;;;14.67;38.90;93420.09;4212389;28;20453;-59
2023/02/26 00:02:35;;;;;;;10.40;4.57;;;;;;;14.69;39.03;93430.41;4212675;28;20048;-59
2023/02/26 00:04:37;;;;;;;10.35;4.45;;;;;;;14.72;38.81;93430.00;4213369;28;20743;-57
2023/02/26 00:06:51;;;;;;;16.58;5.13;;;;;;;14.75;38.87;93442.72;4190668;28;20574;-57
2023/02/26 00:08:58;;;;;;;16.35;4.50;;;;;;;14.76;37.80;93422.47;4181028;28;20041;-58
2023/02/26 00:11:03;;;;;;;12.55;4.45;;;;;;;14.69;38.43;93436.50;4187048;28;20048;-59
2023/02/26 00:13:05;;;;;;;11.52;4.18;;;;;;;14.70;38.03;93424.94;4184801;28;20060;-61
2023/02/26 00:15:07;;;;;;;15.85;4.40;;;;;;;14.73;38.41;93413.97;4194434;28;20052;-59
2023/02/26 00:17:16;;;;;;;12.43;4.25;;;;;;;14.67;38.01;93391.09;4194180;28;20535;-58
2023/02/26 00:19:19;;;;;;;13.35;4.38;;;;;;;14.63;38.09;93387.28;4196193;28;20044;-59
2023/02/26 00:21:22;;;;;;;12.73;3.90;;;;;;;14.58;37.99;93428.47;4196350;28;20543;-58
2023/02/26 00:23:23;;;;;;;14.43;4.10;;;;;;;14.56;37.56;93406.78;4203749;28;20107;-60
2023/02/26 00:25:25;;;;;;;10.43;4.25;;;;;;;14.63;37.72;93376.75;4193174;28;20045;-60
2023/02/26 00:27:27;;;;;;;16.48;3.85;;;;;;;14.59;38.19;93407.19;4192778;28;20044;-60
2023/02/26 00:29:29;;;;;;;12.20;3.88;;;;;;;14.66;38.35;93415.03;4180208;28;20080;-58
2023/02/26 00:31:31;;;;;;;16.23;4.90;;;;;;;14.65;38.60;93406.31;4190118;28;20059;-59
2023/02/26 00:33:33;;;;;;;16.33;4.20;;;;;;;14.67;38.64;93392.91;4191556;28;20048;-58
2023/02/26 00:35:35;;;;;;;14.40;4.00;;;;;;;14.60;37.20;93390.34;4209036;28;20673;-60
2023/02/26 00:37:57;;;;;;;11.32;3.10;;;;;;;14.53;38.49;93390.34;4192933;28;20171;-60
2023/02/26 00:40:13;;;;;;;10.05;3.78;;;;;;;14.56;37.60;93386.50;4197068;28;20044;-59
2023/02/26 00:42:15;;;;;;;15.48;4.20;;;;;;;14.58;37.61;93387.09;4202871;28;20052;-55
2023/02/26 00:44:17;;;;;;;12.50;3.92;;;;;;;14.61;37.02;93385.91;4194044;28;20059;-53
2023/02/26 00:46:41;;;;;;;13.70;3.50;;;;;;;14.67;36.91;93375.28;4212372;28;20044;-54
2023/02/26 00:49:11;;;;;;;10.63;4.35;;;;;;;14.62;37.75;93398.84;4212089;28;20596;-54
2023/02/26 00:51:51;;;;;;;15.13;4.30;;;;;;;14.57;36.73;93367.06;4193031;28;20490;-53
2023/02/26 00:54:07;;;;;;;13.05;3.92;;;;;;;14.65;37.39;93394.97;4167054;28;20053;-54
2023/02/26 00:56:09;;;;;;;18.55;4.15;;;;;;;14.64;36.69;93374.91;4159657;28;20123;-54
2023/02/26 00:58:11;;;;;;;12.65;3.25;;;;;;;14.69;36.77;93380.31;4154657;28;20085;-51
2023/02/26 01:00:13;;;;;;;12.48;4.05;;;;;;;14.69;36.97;93401.41;4188457;28;20052;-54
2023/02/26 01:02:14;;;;;;;9.27;3.45;;;;;;;14.67;37.31;93385.00;4202684;28;20048;-53
2023/02/26 01:04:19;;;;;;;16.13;3.75;;;;;;;14.65;37.09;93408.97;4194859;28;20071;-54
2023/02/26 01:06:25;;;;;;;8.85;3.28;;;;;;;14.56;36.51;93425.25;4202755;28;20049;-51
2023/02/26 01:08:31;;;;;;;14.38;4.38;;;;;;;14.52;36.38;93388.75;4199009;28;20045;-52
2023/02/26 01:10:33;;;;;;;14.02;3.85;;;;;;;14.50;37.16;93369.72;4188937;28;20052;-55
2023/02/26 01:12:36;;;;;;;12.88;4.07;;;;;;;14.53;37.43;93371.13;4193165;28;20129;-52
2023/02/26 01:14:38;;;;;;;18.10;3.88;;;;;;;14.54;36.57;93375.38;4195066;28;20052;-51
2023/02/26 01:16:50;;;;;;;14.88;3.80;;;;;;;14.45;37.44;93363.47;4212375;28;20051;-52
2023/02/26 01:19:12;;;;;;;19.30;3.47;;;;;;;14.44;37.57;93349.50;4193197;28;20095;-52
2023/02/26 01:21:18;;;;;;;18.60;4.53;;;;;;;14.53;36.57;93344.75;4196515;28;20083;-52
2023/02/26 01:23:30;;;;;;;14.02;3.88;;;;;;;14.55;37.17;93348.03;4211271;28;20543;-52
2023/02/26 01:25:44;;;;;;;11.38;4.07;;;;;;;14.61;37.52;93341.09;4192123;28;20052;-52
2023/02/26 01:27:46;;;;;;;11.40;4.00;;;;;;;14.52;37.56;93348.44;4205708;28;20045;-57
2023/02/26 01:29:47;;;;;;;15.63;4.97;;;;;;;14.44;38.38;93332.88;4207174;28;20070;-54
2023/02/26 01:32:06;;;;;;;14.55;4.07;;;;;;;14.34;38.19;93349.16;4195737;28;20110;-53
2023/02/26 01:34:16;;;;;;;18.25;4.85;;;;;;;14.39;38.30;93325.63;4178340;28;20059;-55
2023/02/26 01:36:27;;;;;;;15.32;3.85;;;;;;;14.42;37.77;93351.53;4189822;28;20511;-53
2023/02/26 01:38:33;;;;;;;16.10;4.32;;;;;;;14.33;38.23;93323.88;4182804;28;20048;-53
2023/02/26 01:40:57;;;;;;;18.75;3.90;;;;;;;14.15;38.89;93295.63;4195858;28;20051;-52
2023/02/26 01:43:06;;;;;;;17.08;4.65;;;;;;;14.17;38.75;93327.81;4193458;28;20131;-54
2023/02/26 01:45:15;;;;;;;9.23;3.83;;;;;;;14.23;38.73;93328.81;4183934;28;20061;-55
2023/02/26 01:47:45;;;;;;;12.90;3.88;;;;;;;14.32;38.65;93330.94;4187335;28;20095;-53
2023/02/26 01:49:47;;;;;;;18.08;4.75;;;;;;;14.30;38.43;93322.47;4171608;28;20056;-51
2023/02/26 01:51:50;;;;;;;12.40;3.65;;;;;;;14.34;38.48;93313.09;4179085;28;20639;-51
2023/02/26 01:53:52;;;;;;;11.82;4.10;;;;;;;14.36;38.49;93331.31;4179400;28;20563;-54
2023/02/26 01:56:00;;;;;;;13.45;3.83;;;;;;;14.38;38.43;93307.41;4180795;28;20088;-51
2023/02/26 01:58:02;;;;;;;15.32;3.85;;;;;;;14.21;38.40;93313.22;4192629;28;20056;-58
2023/02/26 02:00:05;;;;;;;13.00;4.30;;;;;;;14.13;38.23;93290.59;4199993;28;20055;-60
2023/02/26 02:02:09;;;;;;;15.07;4.35;;;;;;;14.04;38.19;93306.88;4213886;28;20048;-57
2023/02/26 02:04:13;;;;;;;10.35;3.83;;;;;;;14.05;38.20;93306.66;4211989;28;20056;-57
2023/02/26 02:06:25;;;;;;;10.88;3.78;;;;;;;14.10;38.65;93290.22;4210727;28;20048;-57
2023/02/26 02:08:28;;;;;;;10.45;3.70;;;;;;;14.00;38.68;93326.72;4196114;28;20132;-59
2023/02/26 02:10:29;;;;;;;12.30;3.47;;;;;;;13.99;37.76;93304.88;4204877;28;20063;-59
2023/02/26 02:12:44;;;;;;;10.77;3.85;;;;;;;14.04;37.85;93298.97;4189890;28;20077;-59
2023/02/26 02:14:48;;;;;;;11.18;3.58;;;;;;;14.10;37.77;93266.50;4198943;28;20053;-58
2023/02/26 02:17:08;;;;;;;9.80;3.38;;;;;;;14.01;37.31;93278.34;4198030;28;20084;-61
2023/02/26 02:19:31;;;;;;;15.38;3.33;;;;;;;14.10;37.26;93277.03;4189277;28;20161;-58
2023/02/26 02:21:59;;;;;;;7.45;2.97;;;;;;;14.16;36.79;93284.09;4199134;28;20044;-61
2023/02/26 02:24:10;;;;;;;13.95;3.72;;;;;;;14.20;36.82;93268.66;4209252;28;20110;-59
2023/02/26 02:26:31;;;;;;;11.63;3.63;;;;;;;14.15;36.42;93235.06;4206909;28;20471;-59
2023/02/26 02:28:44;;;;;;;17.05;3.72;;;;;;;14.13;37.20;93279.22;4209980;28;20456;-59
2023/02/26 02:31:10;;;;;;;13.30;4.03;;;;;;;14.18;36.82;93271.50;4197877;28;20040;-60
2023/02/26 02:33:14;;;;;;;13.90;3.53;;;;;;;14.21;36.99;93286.06;4213151;28;20044;-59
2023/02/26 02:35:16;;;;;;;13.15;3.42;;;;;;;14.24;37.11;93301.44;4213873;28;20109;-56
2023/02/26 02:37:28;;;;;;;12.98;4.03;;;;;;;14.14;37.03;93291.41;4214148;28;20080;-56
2023/02/26 02:39:31;;;;;;;11.93;3.67;;;;;;;14.15;36.44;93277.19;4212110;28;20076;-55
2023/02/26 02:41:45;;;;;;;11.65;3.53;;;;;;;14.19;36.65;93277.56;4213074;28;20066;-49
2023/02/26 02:43:48;;;;;;;9.35;3.45;;;;;;;14.20;37.45;93277.38;4214337;28;20052;-53
2023/02/26 02:45:57;;;;;;;9.93;3.70;;;;;;;14.15;36.65;93298.25;4203491;28;20044;-54
2023/02/26 02:48:05;;;;;;;10.75;3.60;;;;;;;14.17;37.08;93298.84;4187883;28;20051;-54
2023/02/26 02:50:12;;;;;;;9.73;3.40;;;;;;;14.14;37.09;93280.84;4210540;28;20083;-53
2023/02/26 02:52:30;;;;;;;13.93;3.35;;;;;;;14.17;36.92;93303.31;4213019;28;20147;-54
2023/02/26 02:54:45;;;;;;;8.38;3.72;;;;;;;14.17;36.84;93337.56;4196435;28;20083;-51
2023/02/26 02:56:55;;;;;;;12.20;3.97;;;;;;;14.18;37.10;93312.84;4214466;28;20154;-60
2023/02/26 02:59:04;;;;;;;17.95;4.53;;;;;;;14.19;36.82;93290.75;4212600;28;20604;-60
2023/02/26 03:01:10;;;;;;;7.03;3.40;;;;;;;14.18;36.65;93282.03;4212791;28;20063;-58
2023/02/26 03:03:19;;;;;;;8.90;3.13;;;;;;;14.13;36.68;93306.41;4212004;28;20535;-59
2023/02/26 03:05:21;;;;;;;12.30;3.55;;;;;;;14.11;36.40;93318.13;4195263;28;20064;-60
2023/02/26 03:07:23;;;;;;;13.05;3.70;;;;;;;14.18;36.71;93303.13;4193985;28;20550;-59
2023/02/26 03:09:24;;;;;;;11.30;3.20;;;;;;;13.96;36.96;93325.53;4187708;28;20074;-60
2023/02/26 03:11:26;;;;;;;14.80;3.80;;;;;;;14.01;37.03;93307.31;4214203;28;20575;-58
2023/02/26 03:13:28;;;;;;;10.95;3.33;;;;;;;14.07;37.15;93327.50;4201785;28;20044;-59
2023/02/26 03:15:34;;;;;;;11.60;3.42;;;;;;;14.08;36.76;93310.69;4213406;28;20072;-58
2023/02/26 03:18:09;;;;;;;10.50;3.40;;;;;;;14.07;36.25;93301.97;4200077;28;20075;-60
2023/02/26 03:20:27;;;;;;;13.35;3.08;;;;;;;14.11;36.05;93315.50;4166881;28;20044;-61
2023/02/26 03:22:42;;;;;;;9.93;3.30;;;;;;;14.13;36.43;93326.63;4209581;28;20506;-60
2023/02/26 03:24:54;;;;;;;10.75;3.35;;;;;;;14.11;36.47;93290.00;4204940;28;20068;-60
2023/02/26 03:27:04;;;;;;;10.43;3.65;;;;;;;14.17;36.26;93313.84;4196203;28;20052;-59
2023/02/26 03:29:09;;;;;;;14.18;3.58;;;;;;;14.22;36.06;93322.75;4184768;28;20044;-58
2023/02/26 03:31:35;;;;;;;11.00;3.20;;;;;;;14.26;35.89;93310.75;4187524;28;20506;-58
2023/02/26 03:34:03;;;;;;;13.93;3.63;;;;;;;14.17;36.32;93319.13;4193182;28;20358;-58
2023/02/26 03:36:17;;;;;;;8.90;3.35;;;;;;;14.04;36.40;93291.06;4199374;28;20056;-60
2023/02/26 03:38:30;;;;;;;;;;;;;;;14.07;36.49;93328.31;4194708;28;20052;-60
2023/02/26 03:40:53;;;;;;;7.80;3.30;;;;;;;14.11;36.89;93315.50;4180619;28;19921;-60
2023/02/26 03:43:06;;;;;;;9.48;3.00;;;;;;;14.09;36.31;93305.22;4194361;28;20102;-52
2023/02/26 03:45:14;;;;;;;12.35;3.55;;;;;;;14.12;36.73;93303.97;4179240;28;20041;-55
2023/02/26 03:47:16;;;;;;;10.00;3.42;;;;;;;14.05;36.78;93297.97;4179132;28;20092;-55
2023/02/26 03:49:23;;;;;;;14.07;3.33;;;;;;;13.98;37.14;93319.06;4191319;28;20597;-52
2023/02/26 03:51:25;;;;;;;12.25;4.20;;;;;;;14.05;37.49;93311.91;4180371;28;20057;-50
2023/02/26 03:53:31;;;;;;;10.93;3.15;;;;;;;13.96;37.38;93286.88;4186626;28;20060;-54
2023/02/26 03:55:37;;;;;;;11.77;3.33;;;;;;;14.00;37.19;93290.69;4184101;28;20045;-55
2023/02/26 03:57:39;;;;;;;11.07;3.30;;;;;;;13.97;37.71;93296.38;4194055;28;20052;-57
2023/02/26 03:59:40;;;;;;;14.30;4.00;;;;;;;14.02;37.38;93283.38;4201878;28;20044;-50
2023/02/26 04:02:04;;;;;;;9.40;3.63;;;;;;;14.05;37.58;93284.78;4213036;28;20097;-54
2023/02/26 04:04:25;;;;;;;12.48;3.67;;;;;;;14.04;37.60;93291.84;4210072;28;20051;-56
2023/02/26 04:06:28;;;;;;;10.25;3.45;;;;;;;13.88;37.75;93290.56;4190913;28;20050;-54
2023/02/26 04:08:30;;;;;;;14.43;4.10;;;;;;;13.82;38.24;93288.00;4193258;28;20053;-52
2023/02/26 04:10:43;;;;;;;13.35;3.70;;;;;;;13.86;37.87;93281.28;4180283;28;20478;-54
2023/02/26 04:12:45;;;;;;;14.25;3.58;;;;;;;13.90;37.82;93280.63;4190436;28;20553;-50
2023/02/26 04:14:47;;;;;;;12.32;3.22;;;;;;;13.90;37.95;93314.06;4188274;28;20140;-52
2023/02/26 04:16:48;;;;;;;15.63;3.50;;;;;;;13.86;37.63;93276.81;4190166;28;20049;-55
2023/02/26 04:18:50;;;;;;;14.02;4.63;;;;;;;13.93;37.48;93301.25;4181336;28;20506;-53
2023/02/26 04:20:52;;;;;;;11.57;3.60;;;;;;;13.93;37.33;93309.16;4195138;28;20056;-56
2023/02/26 04:22:53;;;;;;;17.67;3.28;;;;;;;13.90;37.47;93300.91;4213185;28;20132;-53
2023/02/26 04:24:55;;;;;;;13.90;4.20;;;;;;;13.94;37.06;93283.66;4201888;28;20097;-52
2023/02/26 04:26:56;;;;;;;14.73;3.67;;;;;;;13.92;36.70;93248.84;4210775;28;20051;-53
2023/02/26 04:28:58;;;;;;;15.65;3.38;;;;;;;13.97;37.04;93282.41;4212423;28;20069;-53
2023/02/26 04:31:00;;;;;;;11.27;3.22;;;;;;;13.95;36.71;93255.50;4213020;28;20056;-53
2023/02/26 04:33:01;;;;;;;12.80;4.05;;;;;;;14.04;36.72;93241.03;4210520;28;20048;-52
2023/02/26 04:35:03;;;;;;;13.35;3.72;;;;;;;14.02;36.83;93246.50;4211870;28;20048;-52
2023/02/26 04:37:05;;;;;;;10.98;3.42;;;;;;;14.01;36.90;93247.53;4201829;28;20414;-54
2023/02/26 04:39:09;;;;;;;12.05;3.47;;;;;;;14.05;36.46;93243.47;4179747;28;20099;-54
2023/02/26 04:41:11;;;;;;;12.57;3.67;;;;;;;14.01;36.37;93263.34;4179682;28;20055;-54
2023/02/26 04:43:13;;;;;;;18.35;4.05;;;;;;;13.98;36.47;93234.00;4179559;28;20079;-56
2023/02/26 04:45:14;;;;;;;12.93;3.35;;;;;;;13.98;36.55;93240.09;4190951;28;20048;-53
2023/02/26 04:47:16;;;;;;;14.65;3.60;;;;;;;14.00;36.75;93237.22;4210523;28;20047;-54
2023/02/26 04:49:17;;;;;;;15.63;3.10;;;;;;;14.04;36.11;93233.94;4210628;28;20067;-54
2023/02/26 04:51:19;;;;;;;44.85;5.82;;;;;;;13.96;35.98;93204.44;4196847;28;20048;-50
2023/02/26 04:53:21;;;;;;;12.95;3.55;;;;;;;14.05;35.67;93242.66;4210675;28;20040;-57
2023/02/26 04:55:23;;;;;;;14.60;4.03;;;;;;;14.12;35.76;93212.59;4210766;28;20121;-52
2023/02/26 04:57:24;;;;;;;19.30;3.67;;;;;;;14.08;35.67;93253.56;4196862;28;20097;-52
2023/02/26 04:59:26;;;;;;;13.30;3.47;;;;;;;14.05;35.34;93221.59;4185950;28;20052;-54
2023/02/26 05:01:28;;;;;;;22.65;3.75;;;;;;;14.05;35.79;93234.75;4210866;28;20452;-56
2023/02/26 05:03:29;;;;;;;11.45;3.30;;;;;;;14.06;35.69;93210.03;4210743;28;20424;-56
2023/02/26 05:05:31;;;;;;;17.52;3.20;;;;;;;14.11;35.25;93189.09;4207344;28;20082;-55
2023/02/26 05:07:33;;;;;;;13.43;3.55;;;;;;;14.11;35.21;93210.16;4209921;28;20047;-56
2023/02/26 05:09:34;;;;;;;15.05;3.58;;;;;;;14.16;35.33;93202.44;4210259;28;20078;-53
2023/02/26 05:11:36;;;;;;;18.85;3.50;;;;;;;14.14;34.98;93180.78;4209300;28;20490;-55
2023/02/26 05:13:38;;;;;;;12.23;3.20;;;;;;;14.09;35.47;93180.66;4206328;28;20127;-55
2023/02/26 05:15:40;;;;;;;17.45;3.63;;;;;;;14.17;35.21;93193.50;4209875;28;20040;-56
2023/02/26 05:17:41;;;;;;;12.07;3.42;;;;;;;14.17;35.16;93174.28;4202316;28;20104;-54
2023/02/26 05:19:43;;;;;;;18.70;3.63;;;;;;;14.22;35.35;93191.03;4192025;28;20041;-54
2023/02/26 05:21:45;;;;;;;16.10;4.55;;;;;;;14.13;35.08;93197.59;4191978;28;20139;-53
2023/02/26 05:23:46;;;;;;;12.15;3.90;;;;;;;14.21;35.39;93183.34;4200968;28;20467;-54
2023/02/26 05:25:48;;;;;;;15.13;3.97;;;;;;;14.18;35.60;93174.06;4190873;28;20508;-56
2023/02/26 05:27:50;;;;;;;10.70;3.38;;;;;;;14.10;35.47;93169.88;4179285;28;20048;-55
2023/02/26 05:29:51;;;;;;;12.38;4.57;;;;;;;14.11;35.85;93166.22;4191559;28;20048;-58
2023/02/26 05:31:53;;;;;;;13.13;3.88;;;;;;;14.10;35.38;93169.88;4210459;28;20140;-55
2023/02/26 05:33:55;;;;;;;22.33;3.75;;;;;;;14.18;35.23;93144.31;4211226;28;20461;-54
2023/02/26 05:35:56;;;;;;;22.42;4.10;;;;;;;14.23;35.06;93165.50;4211648;28;20056;-58
2023/02/26 05:37:58;;;;;;;20.08;3.85;;;;;;;14.26;34.77;93160.63;4212421;28;20519;-56
2023/02/26 05:40:00;;;;;;;16.98;3.25;;;;;;;14.28;34.73;93166.47;4179724;28;20045;-55
2023/02/26 05:42:02;;;;;;;16.80;3.85;;;;;;;14.29;35.12;93167.28;4185308;28;20087;-53
2023/02/26 05:44:03;;;;;;;11.07;3.55;;;;;;;14.38;34.89;93170.41;4195107;28;20105;-55
2023/02/26 05:46:05;;;;;;;17.10;3.80;;;;;;;14.42;34.85;93150.50;4208575;28;20056;-57
2023/02/26 05:48:07;;;;;;;14.55;3.70;;;;;;;14.36;34.97;93169.81;4184503;28;20040;-55
2023/02/26 05:50:09;;;;;;;18.52;4.13;;;;;;;14.39;34.64;93177.28;4211179;28;20040;-55
2023/02/26 05:52:11;;;;;;;16.02;3.50;;;;;;;14.38;34.93;93151.97;4212272;28;20203;-53
2023/02/26 05:54:12;;;;;;;17.70;3.40;;;;;;;14.39;34.67;93164.09;4211548;28;20055;-58
2023/02/26 05:56:14;;;;;;;18.85;3.72;;;;;;;14.45;34.14;93171.94;4212246;28;20101;-52
2023/02/26 05:58:18;;;;;;;14.43;3.58;;;;;;;14.46;34.49;93173.56;4211690;28;20052;-54
2023/02/26 06:00:20;;;;;;;12.65;3.20;;;;;;;14.51;34.46;93133.38;4211488;28;20052;-55
2023/02/26 06:02:21;;;;;;;19.67;3.38;;;;;;;14.52;34.31;93182.44;4210092;28;20529;-53
2023/02/26 06:04:23;;;;;;;14.50;4.18;;;;;;;14.51;33.43;93160.53;4211461;28;20048;-56
2023/02/26 06:06:25;;;;;;;22.20;4.75;;;;;;;14.64;33.67;93164.06;4200931;28;20136;-55
2023/02/26 06:08:27;;;;;;;15.93;3.20;;;;;;;14.58;33.61;93149.13;4194666;28;20410;-54
2023/02/26 06:10:29;;;;;;;17.20;3.50;;;;;;;14.66;33.37;93173.34;4192073;28;20049;-56
2023/02/26 06:12:30;;;;;;;27.83;4.10;;;;;;;14.67;33.30;93198.69;4189130;28;20064;-53
2023/02/26 06:14:33;;;;;;;13.88;3.50;;;;;;;14.74;33.63;93198.63;4198938;28;20131;-54
2023/02/26 06:16:34;;;;;;;21.55;4.28;;;;;;;14.81;33.13;93190.63;4198745;28;20045;-53
2023/02/26 06:18:36;;;;;;;12.93;3.08;;;;;;;14.86;33.36;93215.31;4187829;28;20424;-57
2023/02/26 06:20:38;;;;;;;14.05;4.30;;;;;;;14.83;32.84;93193.84;4189500;28;20061;-54
2023/02/26 06:22:39;;;;;;;10.75;3.28;;;;;;;14.94;32.81;93193.88;4194930;28;20514;-55
2023/02/26 06:24:41;;;;;;;17.65;3.38;;;;;;;14.93;32.83;93197.56;4200582;28;20139;-51
2023/02/26 06:26:43;;;;;;;16.15;3.90;;;;;;;14.91;32.81;93235.72;4211681;28;20093;-53
2023/02/26 06:28:44;;;;;;;12.00;3.85;;;;;;;14.97;32.74;93199.75;4186739;28;20104;-53
2023/02/26 06:30:46;;;;;;;18.52;4.30;;;;;;;15.08;32.55;93196.38;4178119;28;20061;-54
2023/02/26 06:32:48;;;;;;;15.40;3.80;;;;;;;15.05;32.70;93191.53;4177250;28;20041;-55
2023/02/26 06:34:50;;;;;;;15.57;3.80;;;;;;;15.05;32.54;93189.69;4178212;28;20045;-55
2023/02/26 06:36:52;;;;;;;14.80;3.58;;;;;;;15.14;32.33;93249.03;4178272;28;20048;-52
2023/02/26 06:38:53;;;;;;;17.40;3.40;;;;;;;15.16;32.40;93193.41;4178621;28;20391;-54
2023/02/26 06:40:55;;;;;;;16.13;3.72;;;;;;;15.18;32.34;93216.94;4191129;28;20044;-56
2023/02/26 06:42:57;;;;;;;12.70;3.60;;;;;;;15.17;31.82;93194.22;4212131;28;20052;-59
2023/02/26 06:44:58;;;;;;;16.20;4.00;;;;;;;15.20;31.96;93197.22;4186643;28;20114;-53
2023/02/26 06:47:00;;;;;;;15.48;3.13;;;;;;;15.27;31.80;93190.03;4194029;28;20045;-54
2023/02/26 06:49:02;;;;;;;12.00;3.33;;;;;;;15.27;31.59;93191.84;4180298;28;20133;-50
2023/02/26 06:51:04;;;;;;;16.65;4.43;;;;;;;15.33;31.90;93191.75;4192554;28;20064;-51
2023/02/26 06:53:08;;;;;;;19.75;4.13;;;;;;;15.24;31.63;93108.69;4185624;28;20120;-50
2023/02/26 06:55:10;;;;;;;18.80;4.22;;;;;;;15.28;31.85;93146.78;4215042;28;20550;-53
2023/02/26 06:57:11;;;;;;;19.95;3.47;;;;;;;15.32;31.52;93165.59;4197069;28;20141;-54
2023/02/26 06:59:14;;;;;;;23.38;4.30;;;;;;;15.33;31.60;93164.56;4192944;28;20560;-56
2023/02/26 07:01:16;;;;;;;27.83;4.25;;;;;;;15.36;31.38;93193.16;4199820;28;20048;-57
2023/02/26 07:03:17;;;;;;;16.40;4.00;;;;;;;15.32;31.34;93202.53;4213535;28;20078;-51
2023/02/26 07:05:20;;;;;;;13.85;3.45;;;;;;;15.36;31.29;93161.47;4203916;28;20052;-54
2023/02/26 07:07:22;;;;;;;16.40;3.40;;;;;;;15.41;31.00;93160.81;4196383;28;20072;-54
2023/02/26 07:09:23;;;;;;;22.13;4.75;;;;;;;15.45;31.53;93220.03;4197654;28;20044;-57
2023/02/26 07:11:25;;;;;;;20.40;3.70;;;;;;;15.46;31.04;93155.63;4192894;28;20037;-53
2023/02/26 07:13:27;;;;;;;16.00;3.78;;;;;;;15.54;31.20;93156.13;4182866;28;20057;-54
2023/02/26 07:15:29;;;;;;;15.60;3.60;;;;;;;15.56;31.07;93204.19;4184245;28;20077;-52
2023/02/26 07:17:31;;;;;;;11.32;3.30;;;;;;;15.61;30.90;93179.75;4184366;28;20036;-56
2023/02/26 07:19:32;;;;;;;15.80;3.95;;;;;;;15.61;31.17;93194.81;4193891;28;20479;-54
2023/02/26 07:21:34;;;;;;;18.85;3.20;;;;;;;15.67;31.02;93188.63;4196693;28;20427;-57
2023/02/26 07:23:35;;;;;;;18.55;3.63;;;;;;;15.66;30.76;93201.03;4207770;28;20048;-57
2023/02/26 07:25:37;;;;;;;9.75;3.40;;;;;;;15.80;30.61;93200.84;4200045;28;20071;-56
2023/02/26 07:27:39;;;;;;;16.88;3.13;;;;;;;15.89;30.68;93191.53;4213205;28;20470;-59
2023/02/26 07:29:44;;;;;;;23.67;3.63;;;;;;;15.93;30.47;93197.97;4212745;28;20044;-57
2023/02/26 07:31:45;;;;;;;13.45;3.17;;;;;;;15.96;30.72;93144.72;4209384;28;20085;-55
2023/02/26 07:33:47;;;;;;;16.17;3.08;;;;;;;16.05;30.59;93172.38;4183454;28;20102;-57
2023/02/26 07:35:49;;;;;;;25.42;3.97;;;;;;;16.08;30.24;93157.91;4202220;28;20048;-51
2023/02/26 07:37:51;;;;;;;18.33;3.97;;;;;;;15.92;30.94;93183.97;4212545;28;20138;-56
2023/02/26 07:39:52;;;;;;;17.15;3.50;;;;;;;16.00;30.89;93174.88;4208954;28;20048;-58
2023/02/26 07:41:54;;;;;;;15.73;3.97;;;;;;;15.97;30.73;93199.94;4213155;28;20044;-57
2023/02/26 07:43:55;;;;;;;11.63;3.38;;;;;;;16.12;30.78;93214.53;4201499;28;20072;-57
2023/02/26 07:45:57;;;;;;;19.55;3.58;;;;;;;16.06;30.53;93220.72;4202910;28;20105;-55
2023/02/26 07:47:59;;;;;;;14.75;3.70;;;;;;;16.09;30.58;93175.34;4208506;28;20523;-57
2023/02/26 07:50:01;;;;;;;14.60;3.25;;;;;;;16.16;30.63;93198.00;4211209;28;20396;-55
2023/02/26 07:52:03;;;;;;;17.67;4.07;;;;;;;16.18;30.48;93174.78;4210515;28;20051;-53
2023/02/26 07:54:04;;;;;;;17.52;4.25;;;;;;;16.21;30.23;93186.72;4210703;28;20497;-54
2023/02/26 07:56:06;;;;;;;20.30;4.00;;;;;;;16.39;30.31;93217.53;4209019;28;20052;-56
2023/02/26 07:58:08;;;;;;;22.73;4.05;;;;;;;16.30;29.92;93171.31;4211777;28;20122;-55
2023/02/26 08:00:10;;;;;;;21.25;3.88;;;;;;;16.34;30.00;93204.97;4210671;28;20052;-57
2023/02/26 08:02:12;;;;;;;22.73;4.03;;;;;;;16.40;29.56;93197.97;4211061;28;20056;-61
2023/02/26 08:04:14;;;;;;;20.48;3.63;;;;;;;16.50;29.83;93197.41;4209064;28;20118;-61
2023/02/26 08:06:16;;;;;;;16.50;3.78;;;;;;;16.45;29.46;93157.63;4206850;28;20080;-60
2023/02/26 08:08:17;;;;;;;16.80;3.83;;;;;;;16.36;29.54;93160.63;4204272;28;20060;-61
2023/02/26 08:10:19;;;;;;;14.35;3.63;;;;;;;16.43;29.83;93172.91;4213616;28;20433;-61
2023/02/26 08:12:21;;;;;;;19.10;4.15;;;;;;;16.49;29.69;93174.63;4206209;28;20048;-60
2023/02/26 08:14:22;;;;;;;14.85;4.07;;;;;;;16.46;29.73;93209.47;4212748;28;20043;-61
2023/02/26 08:16:24;;;;;;;19.77;3.17;;;;;;;16.58;29.71;93205.78;4204750;28;20108;-59
2023/02/26 08:18:26;;;;;;;14.80;4.15;;;;;;;16.62;29.96;93182.31;4207351;28;20074;-61
2023/02/26 08:20:28;;;;;;;13.77;3.03;;;;;;;16.57;29.72;93203.38;4196683;28;20079;-62
2023/02/26 08:22:29;;;;;;;22.50;4.28;;;;;;;16.55;29.69;93171.88;4196733;28;20493;-61
2023/02/26 08:24:31;;;;;;;18.83;4.28;;;;;;;16.59;29.83;93217.94;4197574;28;20101;-60
2023/02/26 08:26:36;;;;;;;17.80;3.58;;;;;;;16.65;29.56;93205.66;4206797;28;20677;-61
2023/02/26 08:28:38;;;;;;;19.58;4.43;;;;;;;16.50;29.61;93187.63;4212914;28;20486;-60
2023/02/26 08:30:40;;;;;;;14.70;3.55;;;;;;;16.54;29.65;93194.06;4213509;28;20050;-62
2023/02/26 08:32:41;;;;;;;14.65;3.15;;;;;;;16.50;29.60;93229.94;4212420;28;20044;-62
2023/02/26 08:34:43;;;;;;;9.70;2.78;;;;;;;16.54;29.88;93215.22;4212960;28;20075;-60
2023/02/26 08:36:45;;;;;;;21.40;4.07;;;;;;;16.57;30.13;93217.38;4210150;28;20510;-61
2023/02/26 08:38:47;;;;;;;22.27;3.67;;;;;;;16.74;29.89;93208.75;4196112;28;20048;-62
2023/02/26 08:40:49;;;;;;;21.75;3.95;;;;;;;16.73;29.72;93234.34;4205768;28;20044;-62
2023/02/26 08:42:51;;;;;;;29.92;4.40;;;;;;;16.82;29.54;93268.41;4212415;28;20052;-60
2023/02/26 08:44:53;;;;;;;21.15;4.13;;;;;;;16.84;29.25;93250.47;4209092;28;20111;-60
2023/02/26 08:46:55;;;;;;;13.30;3.97;;;;;;;16.91;29.60;93248.53;4202963;28;20609;-60
2023/02/26 08:48:57;;;;;;;23.65;4.13;;;;;;;16.79;29.50;93225.50;4211012;28;20076;-53
2023/02/26 08:50:58;;;;;;;21.75;3.10;;;;;;;16.76;29.49;93236.56;4211731;28;20059;-54
2023/02/26 08:53:00;;;;;;;19.88;4.18;;;;;;;16.76;29.77;93254.28;4213113;28;20040;-53
2023/02/26 08:55:03;;;;;;;16.15;3.85;;;;;;;16.79;29.77;93228.16;4205606;28;20126;-56
2023/02/26 08:57:04;;;;;;;15.60;4.43;;;;;;;16.77;29.72;93218.84;4205948;28;20052;-59
2023/02/26 08:59:08;;;;;;;11.88;4.40;;;;;;;16.81;29.38;93235.09;4196489;28;20067;-56
2023/02/26 09:01:10;;;;;;;13.73;3.88;;;;;;;16.92;29.64;93240.34;4204648;28;20045;-55
2023/02/26 09:03:12;;;;;;;18.55;4.35;;;;;;;17.00;29.42;93223.31;4202004;28;20127;-54
2023/02/26 09:05:14;;;;;;;15.48;3.72;;;;;;;16.85;29.19;93234.38;4209707;28;20068;-53
2023/02/26 09:07:16;;;;;;;18.05;4.07;;;;;;;16.97;28.79;93229.06;4185358;28;20061;-55
2023/02/26 09:09:18;;;;;;;19.33;3.67;;;;;;;17.03;28.96;93225.47;4179639;28;20507;-55
2023/02/26 09:11:19;;;;;;;17.58;3.78;;;;;;;17.20;28.67;93255.44;4185209;28;20044;-56
2023/02/26 09:13:21;;;;;;;24.02;4.82;;;;;;;17.35;28.82;93256.78;4205408;28;20044;-58
2023/02/26 09:15:23;;;;;;;15.27;4.57;;;;;;;17.55;28.53;93259.81;4212443;28;20484;-54
2023/02/26 09:17:25;;;;;;;15.95;3.50;;;;;;;17.60;27.84;93256.47;4181594;28;20044;-53
2023/02/26 09:19:26;;;;;;;15.25;3.70;;;;;;;17.58;27.80;93246.09;4191528;28;20072;-56
2023/02/26 09:21:28;;;;;;;15.88;3.85;;;;;;;17.64;28.17;93264.72;4200290;28;20106;-55
2023/02/26 09:23:30;;;;;;;15.15;4.10;;;;;;;17.87;27.34;93238.13;4212440;28;20236;-59
2023/02/26 09:25:32;;;;;;;19.83;4.22;;;;;;;18.06;27.30;93256.47;4199508;28;20145;-56
2023/02/26 09:27:34;;;;;;;21.25;4.63;;;;;;;18.08;27.45;93249.09;4206147;28;20581;-56
2023/02/26 09:29:36;;;;;;;15.82;3.55;;;;;;;18.33;27.04;93261.94;4186080;28;20053;-52
2023/02/26 09:31:38;;;;;;;18.80;4.90;;;;;;;18.49;26.84;93270.94;4205892;28;20048;-53
2023/02/26 09:33:40;;;;;;;18.02;4.95;;;;;;;18.65;26.77;93270.13;4185516;28;20121;-57
2023/02/26 09:35:42;;;;;;;18.80;5.10;;;;;;;18.78;26.50;93269.78;4196997;28;20123;-56
2023/02/26 09:37:43;;;;;;;19.58;5.80;;;;;;;18.88;26.36;93278.94;4189936;28;20539;-54
2023/02/26 09:39:45;;;;;;;26.30;5.82;;;;;;;18.93;26.35;93257.75;4182098;28;20491;-59
2023/02/26 09:41:50;;;;;;;25.55;7.43;;;;;;;18.87;25.88;93283.44;4184665;28;20044;-56